createdAt,value
2019-03-28T00:00:04.685Z,10.47
2019-03-28T00:02:33.040Z,11.63
2019-03-28T00:05:01.295Z,9.97
2019-03-28T00:07:29.560Z,10.80
2019-03-28T00:09:57.836Z,10.40
2019-03-28T00:12:28.100Z,12.07
2019-03-28T00:14:56.542Z,8.87
2019-03-28T00:17:24.798Z,12.40
2019-03-28T00:19:53.079Z,13.97
2019-03-28T00:22:23.122Z,13.20
2019-03-28T00:24:58.713Z,11.97
2019-03-28T00:27:26.997Z,10.47
2019-03-28T00:29:55.258Z,11.37
2019-03-28T00:32:23.554Z,10.10
2019-03-28T00:34:51.821Z,10.63
2019-03-28T00:37:20.101Z,10.40
2019-03-28T00:39:49.913Z,10.20
2019-03-28T00:42:19.966Z,11.00
2019-03-28T00:44:48.294Z,11.33
2019-03-28T00:47:16.619Z,10.73
2019-03-28T00:49:45.739Z,11.63
2019-03-28T00:52:14.010Z,14.63
2019-03-28T00:54:42.314Z,10.50
2019-03-28T00:57:10.571Z,11.80
2019-03-28T00:59:38.861Z,13.83
2019-03-28T01:02:07.134Z,11.43
2019-03-28T01:04:35.436Z,12.00
2019-03-28T01:07:03.712Z,12.23
2019-03-28T01:09:32.000Z,13.17
2019-03-28T01:12:00.279Z,12.13
2019-03-28T01:14:28.620Z,13.47
2019-03-28T01:16:56.907Z,18.30
2019-03-28T01:19:25.159Z,17.13
2019-03-28T01:21:53.423Z,14.00
2019-03-28T01:24:21.777Z,13.50
2019-03-28T01:26:57.245Z,17.07
2019-03-28T01:29:20.053Z,13.83
2019-03-28T01:31:48.332Z,13.30
2019-03-28T01:34:16.619Z,15.50
2019-03-28T01:36:44.869Z,13.23
2019-03-28T01:39:13.138Z,15.23
2019-03-28T01:41:41.397Z,13.93
2019-03-28T01:44:09.665Z,16.37
2019-03-28T01:46:37.961Z,14.23
2019-03-28T01:49:06.214Z,13.90
2019-03-28T01:51:34.493Z,15.00
2019-03-28T01:54:03.332Z,16.43
2019-03-28T01:56:31.741Z,17.83
2019-03-28T01:59:00.045Z,16.67
2019-03-28T02:01:28.298Z,17.97
2019-03-28T02:03:56.602Z,15.23
2019-03-28T02:06:24.906Z,17.80
2019-03-28T02:08:53.170Z,16.30
2019-03-28T02:11:21.447Z,20.63
2019-03-28T02:13:49.721Z,16.20
2019-03-28T02:16:18.012Z,15.87
2019-03-28T02:18:46.275Z,16.40
2019-03-28T02:21:14.578Z,19.67
2019-03-28T02:23:42.852Z,22.17
2019-03-28T02:26:11.170Z,18.30
2019-03-28T02:28:39.436Z,20.33
2019-03-28T02:31:07.722Z,20.30
2019-03-28T02:33:35.993Z,18.13
2019-03-28T02:36:04.291Z,18.50
2019-03-28T02:38:32.645Z,22.63
2019-03-28T02:41:00.906Z,18.57
2019-03-28T02:43:29.195Z,19.83
2019-03-28T02:45:57.480Z,17.77
2019-03-28T02:48:25.778Z,18.40
2019-03-28T02:50:54.056Z,19.13
2019-03-28T02:53:22.349Z,16.03
2019-03-28T02:55:50.608Z,18.07
2019-03-28T02:58:18.876Z,23.13
2019-03-28T03:00:48.107Z,17.97
2019-03-28T03:03:16.624Z,20.67
2019-03-28T03:05:44.882Z,19.83
2019-03-28T03:08:13.241Z,19.60
2019-03-28T03:10:41.502Z,19.70
2019-03-28T03:13:09.786Z,18.90
2019-03-28T03:15:38.038Z,21.37
2019-03-28T03:18:06.327Z,20.37
2019-03-28T03:20:34.589Z,19.50
2019-03-28T03:23:02.874Z,20.77
2019-03-28T03:25:31.131Z,24.20
2019-03-28T03:27:59.596Z,22.63
2019-03-28T03:30:27.881Z,21.63
2019-03-28T03:32:56.161Z,22.63
2019-03-28T03:35:24.779Z,20.63
2019-03-28T03:37:53.154Z,19.57
2019-03-28T03:40:21.496Z,21.03
2019-03-28T03:42:49.804Z,22.10
2019-03-28T03:45:18.057Z,23.47
2019-03-28T03:47:46.324Z,24.07
2019-03-28T03:50:17.787Z,25.97
2019-03-28T03:52:46.059Z,25.10
2019-03-28T03:55:14.324Z,24.03
2019-03-28T03:57:42.613Z,22.13
2019-03-28T04:00:10.949Z,22.80
2019-03-28T04:02:39.231Z,22.03
2019-03-28T04:05:07.938Z,23.10
2019-03-28T04:07:36.195Z,23.50
2019-03-28T04:10:05.716Z,21.47
2019-03-28T04:12:33.999Z,20.13
2019-03-28T04:15:02.275Z,22.83
2019-03-28T04:17:30.535Z,22.17
2019-03-28T04:19:58.981Z,21.13
2019-03-28T04:22:27.170Z,21.43
2019-03-28T04:24:55.426Z,19.43
2019-03-28T04:27:25.383Z,20.90
2019-03-28T04:29:53.629Z,22.40
2019-03-28T04:32:21.897Z,27.83
2019-03-28T04:34:50.167Z,22.30
2019-03-28T04:37:18.441Z,22.60
2019-03-28T04:39:46.701Z,23.87
2019-03-28T04:42:14.977Z,21.93
2019-03-28T04:44:43.270Z,23.80
2019-03-28T04:47:11.540Z,21.27
2019-03-28T04:49:39.821Z,24.50
2019-03-28T04:52:08.099Z,21.90
2019-03-28T04:54:36.441Z,24.53
2019-03-28T04:57:04.737Z,22.27
2019-03-28T04:59:32.995Z,27.90
2019-03-28T05:02:03.695Z,27.33
2019-03-28T05:04:31.253Z,24.03
2019-03-28T05:06:59.543Z,23.90
2019-03-28T05:09:27.801Z,26.83
2019-03-28T05:11:56.137Z,22.50
2019-03-28T05:14:24.473Z,22.70
2019-03-28T05:16:52.734Z,24.57
2019-03-28T05:19:21.011Z,21.30
2019-03-28T05:21:49.266Z,23.10
2019-03-28T05:24:17.534Z,25.00
2019-03-28T05:26:45.810Z,22.50
2019-03-28T05:29:14.089Z,22.73
2019-03-28T05:31:42.391Z,22.17
2019-03-28T05:34:10.644Z,25.63
2019-03-28T05:36:38.923Z,28.57
2019-03-28T05:39:07.261Z,21.83
2019-03-28T05:41:35.565Z,21.40
2019-03-28T05:44:03.895Z,21.50
2019-03-28T05:46:32.165Z,24.27
2019-03-28T05:49:00.455Z,22.70
2019-03-28T05:51:28.717Z,18.80
2019-03-28T05:53:57.011Z,24.43
2019-03-28T05:56:25.284Z,25.03
2019-03-28T05:58:54.171Z,21.90
2019-03-28T06:01:22.594Z,23.90
2019-03-28T06:03:50.872Z,22.07
2019-03-28T06:06:19.139Z,23.57
2019-03-28T06:08:47.428Z,21.47
2019-03-28T06:11:15.705Z,22.13
2019-03-28T06:13:43.962Z,22.93
2019-03-28T06:16:12.250Z,23.13
2019-03-28T06:18:40.531Z,24.83
2019-03-28T06:21:08.801Z,24.20
2019-03-28T06:23:37.085Z,25.97
2019-03-28T06:26:05.370Z,22.97
2019-03-28T06:28:33.647Z,23.07
2019-03-28T06:31:01.927Z,30.20
2019-03-28T06:33:30.203Z,24.27
2019-03-28T06:35:58.469Z,23.93
2019-03-28T06:38:26.746Z,21.47
2019-03-28T06:40:55.002Z,25.83
2019-03-28T06:43:23.278Z,27.03
2019-03-28T06:45:51.534Z,29.10
2019-03-28T06:48:19.808Z,24.37
2019-03-28T06:50:48.092Z,27.23
2019-03-28T06:53:16.370Z,31.03
2019-03-28T06:55:44.634Z,26.40
2019-03-28T06:58:12.974Z,26.73
2019-03-28T07:00:41.242Z,25.13
2019-03-28T07:03:09.506Z,28.73
2019-03-28T07:05:37.790Z,22.70
2019-03-28T07:08:06.059Z,24.33
2019-03-28T07:10:34.331Z,27.17
2019-03-28T07:13:02.615Z,26.20
2019-03-28T07:15:30.913Z,25.33
2019-03-28T07:17:59.170Z,26.13
2019-03-28T07:20:27.445Z,26.33
2019-03-28T07:22:55.730Z,25.40
2019-03-28T07:25:25.536Z,25.00
2019-03-28T07:27:54.061Z,24.43
2019-03-28T07:30:22.414Z,23.40
2019-03-28T07:32:50.679Z,25.67
2019-03-28T07:35:18.951Z,22.07
2019-03-28T07:37:47.208Z,24.10
2019-03-28T07:40:15.735Z,24.87
2019-03-28T07:42:47.183Z,24.13
2019-03-28T07:45:19.941Z,24.03
2019-03-28T07:47:48.294Z,26.20
2019-03-28T07:50:16.732Z,28.57
2019-03-28T07:52:45.074Z,24.90
2019-03-28T07:55:16.296Z,25.37
2019-03-28T07:57:43.509Z,23.17
2019-03-28T08:00:12.249Z,23.00
2019-03-28T08:02:40.631Z,25.40
2019-03-28T08:05:10.181Z,25.40
2019-03-28T08:07:44.766Z,26.70
2019-03-28T08:10:09.921Z,23.47
2019-03-28T08:12:38.257Z,23.70
2019-03-28T08:15:09.483Z,25.13
2019-03-28T08:17:37.755Z,22.97
2019-03-28T08:20:10.909Z,24.40
2019-03-28T08:22:39.190Z,23.20
2019-03-28T08:25:11.714Z,24.13
2019-03-28T08:30:40.010Z,24.80
2019-03-28T08:33:09.074Z,23.43
2019-03-28T08:35:37.895Z,21.90
2019-03-28T08:38:09.777Z,23.30
2019-03-28T08:40:40.067Z,25.03
2019-03-28T08:43:08.551Z,22.63
2019-03-28T08:45:36.815Z,21.23
2019-03-28T08:48:05.372Z,25.50
2019-03-28T08:50:33.674Z,21.27
2019-03-28T08:53:01.932Z,20.40
2019-03-28T08:55:30.258Z,23.17
2019-03-28T08:57:58.546Z,21.50
2019-03-28T09:00:33.191Z,21.83
2019-03-28T09:02:56.916Z,23.67
2019-03-28T09:05:25.173Z,21.20
2019-03-28T09:07:53.466Z,21.57
2019-03-28T09:10:21.842Z,21.00
2019-03-28T09:12:50.151Z,25.43
2019-03-28T09:15:18.499Z,20.90
2019-03-28T09:17:46.771Z,23.43
2019-03-28T09:20:15.140Z,21.30
2019-03-28T09:22:43.421Z,19.67
2019-03-28T09:25:12.477Z,21.37
2019-03-28T09:27:40.911Z,21.37
2019-03-28T09:30:10.067Z,21.57
2019-03-28T09:32:38.417Z,20.97
2019-03-28T09:35:07.439Z,21.90
2019-03-28T09:37:35.714Z,19.60
2019-03-28T09:40:05.039Z,21.17
2019-03-28T09:42:34.428Z,20.80
2019-03-28T09:45:03.170Z,21.07
2019-03-28T09:47:31.479Z,18.47
2019-03-28T09:49:59.755Z,17.20
2019-03-28T09:52:28.033Z,18.47
2019-03-28T09:54:56.307Z,17.07
2019-03-28T09:57:26.213Z,16.00
2019-03-28T09:59:54.484Z,16.53
2019-03-28T10:02:22.751Z,18.10
2019-03-28T10:04:51.021Z,16.10
2019-03-28T10:07:19.323Z,17.00
2019-03-28T10:09:47.662Z,17.87
2019-03-28T10:12:15.871Z,15.57
2019-03-28T10:14:44.143Z,18.60
2019-03-28T10:17:12.433Z,17.53
2019-03-28T10:19:40.699Z,16.27
2019-03-28T10:22:08.989Z,15.20
2019-03-28T10:24:37.261Z,16.83
2019-03-28T10:27:05.537Z,15.20
2019-03-28T10:29:33.802Z,15.87
2019-03-28T10:32:02.143Z,14.70
2019-03-28T10:34:30.445Z,16.10
2019-03-28T10:36:58.767Z,15.23
2019-03-28T10:39:27.049Z,17.10
2019-03-28T10:41:55.339Z,14.30
2019-03-28T10:44:23.611Z,15.33
2019-03-28T10:46:51.888Z,16.90
2019-03-28T10:49:20.166Z,16.13
2019-03-28T10:51:48.458Z,15.47
2019-03-28T10:54:20.467Z,14.43
2019-03-28T10:56:52.011Z,14.27
2019-03-28T10:59:23.567Z,13.33
2019-03-28T11:01:50.564Z,12.50
2019-03-28T11:04:16.810Z,12.40
2019-03-28T11:06:45.068Z,12.07
2019-03-28T11:09:13.446Z,11.57
2019-03-28T11:11:41.673Z,10.70
2019-03-28T11:14:09.971Z,12.37
2019-03-28T11:16:38.318Z,12.33
2019-03-28T11:19:06.604Z,12.90
2019-03-28T11:21:35.121Z,12.27
2019-03-28T11:24:03.399Z,11.47
2019-03-28T11:26:31.759Z,12.27
2019-03-28T11:29:01.077Z,11.87
2019-03-28T11:31:29.505Z,10.60
2019-03-28T11:33:57.813Z,11.20
2019-03-28T11:36:26.088Z,11.13
2019-03-28T11:38:54.957Z,10.47
2019-03-28T11:41:23.431Z,9.20
2019-03-28T11:43:51.699Z,9.37
2019-03-28T11:46:19.979Z,9.10
2019-03-28T11:48:48.244Z,8.50
2019-03-28T11:51:16.550Z,7.60
2019-03-28T11:53:44.836Z,7.73
2019-03-28T11:56:13.113Z,7.33
2019-03-28T11:58:41.364Z,8.20
2019-03-28T12:01:09.631Z,5.90
2019-03-28T12:03:37.923Z,7.93
2019-03-28T12:06:06.206Z,5.50
2019-03-28T12:08:34.471Z,6.10
2019-03-28T12:11:02.768Z,11.20
2019-03-28T12:13:39.107Z,6.77
2019-03-28T12:16:01.029Z,5.93
2019-03-28T12:18:29.287Z,7.07
2019-03-28T12:20:57.560Z,6.73
2019-03-28T12:23:25.821Z,7.00
2019-03-28T12:25:54.097Z,6.00
2019-03-28T12:28:22.372Z,6.20
2019-03-28T12:30:50.665Z,5.23
2019-03-28T12:33:18.921Z,4.47
2019-03-28T12:35:47.197Z,5.13
2019-03-28T12:38:15.462Z,8.00
2019-03-28T12:40:43.736Z,7.13
2019-03-28T12:43:11.991Z,7.40
2019-03-28T12:45:40.263Z,7.30
2019-03-28T12:48:08.531Z,8.20
2019-03-28T12:50:36.802Z,8.93
2019-03-28T12:53:05.189Z,8.60
2019-03-28T12:55:33.656Z,7.83
2019-03-28T12:58:01.924Z,7.20
2019-03-28T13:00:35.471Z,8.67
2019-03-28T13:03:03.833Z,7.17
2019-03-28T13:05:34.742Z,10.00
2019-03-28T13:08:06.323Z,9.20
2019-03-28T13:10:34.600Z,8.20
2019-03-28T13:13:03.836Z,8.73
2019-03-28T13:15:32.416Z,7.27
2019-03-28T13:18:00.696Z,7.90
2019-03-28T13:20:28.971Z,8.27
2019-03-28T13:22:57.238Z,9.17
2019-03-28T13:25:25.513Z,7.60
2019-03-28T13:27:53.801Z,7.73
2019-03-28T13:30:22.058Z,8.40
2019-03-28T13:32:50.315Z,8.80
2019-03-28T13:35:18.592Z,8.40
2019-03-28T13:37:46.910Z,7.97
2019-03-28T13:40:15.253Z,6.73
2019-03-28T13:42:43.512Z,7.40
2019-03-28T13:45:12.326Z,7.23
2019-03-28T13:47:40.596Z,6.73
2019-03-28T13:50:10.350Z,7.20
2019-03-28T13:52:38.728Z,7.87
2019-03-28T13:55:07.842Z,7.67
2019-03-28T13:57:36.122Z,7.00
2019-03-28T14:00:06.295Z,7.33
2019-03-28T14:02:34.831Z,7.97
2019-03-28T14:05:03.093Z,7.80
2019-03-28T14:07:31.369Z,5.83
2019-03-28T14:09:59.657Z,7.77
2019-03-28T14:12:27.946Z,6.30
2019-03-28T14:14:56.219Z,6.30
2019-03-28T14:17:24.504Z,5.33
2019-03-28T14:19:52.771Z,5.50
2019-03-28T14:22:21.021Z,4.93
2019-03-28T14:24:50.939Z,4.47
2019-03-28T14:27:19.208Z,5.60
2019-03-28T14:29:47.480Z,5.03
2019-03-28T14:32:15.743Z,4.50
2019-03-28T14:34:44.122Z,4.97
2019-03-28T14:37:12.410Z,5.10
2019-03-28T14:39:40.696Z,5.10
2019-03-28T14:42:09.013Z,4.80
2019-03-28T14:44:37.285Z,5.43
2019-03-28T14:47:05.542Z,5.33
2019-03-28T14:49:33.903Z,5.30
2019-03-28T14:52:03.211Z,4.20
2019-03-28T14:54:31.477Z,4.63
2019-03-28T14:57:00.866Z,4.43
2019-03-28T14:59:32.809Z,5.60
2019-03-28T15:01:59.456Z,4.53
2019-03-28T15:04:27.738Z,5.37
2019-03-28T15:06:55.998Z,4.07
2019-03-28T15:09:24.284Z,3.60
2019-03-28T15:11:52.545Z,4.43
2019-03-28T15:14:20.840Z,4.00
2019-03-28T15:16:49.121Z,3.70
2019-03-28T15:19:17.409Z,3.63
2019-03-28T15:21:45.663Z,5.10
2019-03-28T15:24:13.954Z,3.10
2019-03-28T15:26:42.324Z,2.93
2019-03-28T15:29:10.668Z,4.53
2019-03-28T15:31:38.999Z,4.07
2019-03-28T15:34:07.315Z,3.73
2019-03-28T15:36:35.595Z,5.43
2019-03-28T15:39:05.762Z,4.13
2019-03-28T15:41:35.159Z,4.67
2019-03-28T15:44:03.436Z,3.70
2019-03-28T15:46:31.712Z,5.47
2019-03-28T15:49:00.076Z,7.93
2019-03-28T15:51:28.343Z,4.87
2019-03-28T15:53:56.619Z,5.23
2019-03-28T15:56:24.894Z,7.23
2019-03-28T15:58:53.174Z,4.47
2019-03-28T16:01:21.451Z,4.70
2019-03-28T16:03:53.058Z,4.43
2019-03-28T16:06:22.329Z,7.07
2019-03-28T16:08:49.743Z,5.43
2019-03-28T16:11:18.028Z,3.90
2019-03-28T16:13:46.378Z,4.70
2019-03-28T16:16:14.659Z,3.87
2019-03-28T16:18:42.937Z,7.30
2019-03-28T16:21:11.197Z,4.77
2019-03-28T16:23:39.493Z,4.37
2019-03-28T16:26:07.763Z,4.10
2019-03-28T16:28:36.051Z,7.43
2019-03-28T16:31:04.325Z,4.10
2019-03-28T16:33:32.575Z,4.67
2019-03-28T16:36:00.842Z,4.37
2019-03-28T16:38:29.110Z,4.87
2019-03-28T16:40:57.857Z,3.83
2019-03-28T16:43:26.216Z,7.57
2019-03-28T16:45:54.479Z,3.97
2019-03-28T16:48:22.748Z,4.00
2019-03-28T16:50:51.019Z,6.03
2019-03-28T16:53:19.384Z,4.73
2019-03-28T16:55:47.682Z,4.83
2019-03-28T16:58:15.955Z,5.00
2019-03-28T17:00:44.237Z,5.03
2019-03-28T17:03:12.512Z,5.00
2019-03-28T17:05:41.642Z,4.97
2019-03-28T17:08:10.308Z,5.13
2019-03-28T17:10:45.976Z,4.50
2019-03-28T17:13:15.087Z,4.67
2019-03-28T17:15:43.356Z,4.83
2019-03-28T17:18:11.713Z,4.93
2019-03-28T17:20:40.726Z,6.33
2019-03-28T17:23:09.079Z,4.80
2019-03-28T17:25:37.325Z,3.70
2019-03-28T17:28:05.593Z,3.90
2019-03-28T17:30:33.854Z,5.63
2019-03-28T17:33:02.137Z,5.57
2019-03-28T17:35:30.398Z,4.50
2019-03-28T17:37:58.807Z,10.00
2019-03-28T17:40:27.068Z,4.67
2019-03-28T17:42:55.353Z,4.10
2019-03-28T17:45:23.713Z,4.80
2019-03-28T17:47:52.014Z,5.47
2019-03-28T17:50:20.287Z,5.03
2019-03-28T17:52:48.591Z,6.57
2019-03-28T17:55:19.611Z,4.90
2019-03-28T17:57:46.969Z,5.53
2019-03-28T18:00:15.291Z,4.70
2019-03-28T18:02:43.570Z,5.70
2019-03-28T18:05:15.571Z,7.53
2019-03-28T18:07:41.912Z,5.10
2019-03-28T18:10:10.425Z,4.73
2019-03-28T18:12:39.651Z,11.53
2019-03-28T18:15:08.195Z,5.13
2019-03-28T18:17:36.493Z,4.43
2019-03-28T18:20:06.730Z,5.13
2019-03-28T18:22:34.988Z,6.13
2019-03-28T18:25:03.794Z,4.60
2019-03-28T18:27:32.063Z,5.40
2019-03-28T18:30:00.367Z,4.90
2019-03-28T18:32:28.647Z,4.80
2019-03-28T18:35:05.023Z,4.83
2019-03-28T18:37:26.933Z,6.10
2019-03-28T18:39:55.220Z,5.90
2019-03-28T18:42:23.504Z,4.97
2019-03-28T18:44:51.800Z,4.60
2019-03-28T18:47:20.064Z,5.40
2019-03-28T18:49:48.328Z,4.93
2019-03-28T18:52:16.605Z,5.50
2019-03-28T18:54:44.897Z,5.43
2019-03-28T18:57:13.723Z,6.00
2019-03-28T18:59:42.208Z,5.03
2019-03-28T19:02:10.507Z,6.00
2019-03-28T19:04:38.780Z,5.80
2019-03-28T19:07:07.040Z,6.80
2019-03-28T19:09:35.344Z,5.90
2019-03-28T19:12:03.612Z,6.40
2019-03-28T19:14:32.002Z,11.10
2019-03-28T19:17:00.229Z,6.43
2019-03-28T19:19:38.838Z,6.50
2019-03-28T19:21:58.486Z,10.20
2019-03-28T19:24:26.765Z,8.13
2019-03-28T19:26:55.028Z,7.17
2019-03-28T19:29:23.307Z,7.40
2019-03-28T19:31:51.573Z,8.37
2019-03-28T19:34:19.852Z,7.10
2019-03-28T19:36:48.189Z,8.47
2019-03-28T19:39:19.638Z,8.43
2019-03-28T19:41:48.989Z,7.90
2019-03-28T19:44:17.252Z,8.80
2019-03-28T19:46:45.527Z,9.30
2019-03-28T19:49:13.805Z,9.57
2019-03-28T19:51:42.080Z,9.53
2019-03-28T19:54:10.360Z,8.23
2019-03-28T19:56:38.622Z,8.77
2019-03-28T19:59:06.934Z,10.07
2019-03-28T20:01:35.748Z,9.10
2019-03-28T20:04:03.999Z,9.87
2019-03-28T20:06:32.269Z,10.07
2019-03-28T20:09:00.528Z,10.43
2019-03-28T20:11:28.886Z,13.30
2019-03-28T20:13:57.176Z,11.20
2019-03-28T20:16:25.951Z,10.00
2019-03-28T20:18:54.551Z,9.93
2019-03-28T20:21:22.909Z,10.20
2019-03-28T20:23:51.217Z,10.70
2019-03-28T20:26:19.976Z,9.73
2019-03-28T20:28:48.351Z,10.00
2019-03-28T20:31:16.649Z,11.50
2019-03-28T20:33:44.905Z,10.73
2019-03-28T20:36:36.328Z,9.73
2019-03-28T20:38:44.807Z,11.70
2019-03-28T20:41:13.244Z,10.63
2019-03-28T20:43:41.500Z,10.73
2019-03-28T20:46:09.856Z,10.23
2019-03-28T20:48:38.828Z,10.23
2019-03-28T20:51:07.476Z,10.70
2019-03-28T20:53:35.753Z,11.47
2019-03-28T20:56:04.163Z,11.70
2019-03-28T20:58:32.461Z,15.43
2019-03-28T21:01:00.734Z,24.70
2019-03-28T21:03:29.102Z,11.67
2019-03-28T21:05:58.146Z,11.87
2019-03-28T21:08:26.512Z,11.27
2019-03-28T21:10:54.860Z,13.10
2019-03-28T21:13:23.174Z,10.20
2019-03-28T21:15:51.432Z,10.73
2019-03-28T21:18:19.704Z,12.07
2019-03-28T21:20:47.964Z,10.63
2019-03-28T21:23:16.238Z,11.63
2019-03-28T21:25:44.581Z,10.33
2019-03-28T21:28:14.003Z,11.47
2019-03-28T21:30:47.623Z,11.63
2019-03-28T21:33:15.027Z,10.37
2019-03-28T21:35:42.528Z,11.33
2019-03-28T21:38:10.889Z,10.60
2019-03-28T21:40:39.174Z,10.43
2019-03-28T21:43:07.498Z,10.90
2019-03-28T21:45:35.788Z,10.83
2019-03-28T21:48:04.257Z,22.50
2019-03-28T21:50:32.537Z,12.23
2019-03-28T21:53:00.787Z,10.67
2019-03-28T21:55:29.077Z,12.23
2019-03-28T21:57:57.412Z,11.17
2019-03-28T22:00:25.712Z,11.00
2019-03-28T22:02:53.986Z,10.40
2019-03-28T22:05:22.262Z,10.20
2019-03-28T22:07:50.569Z,11.37
2019-03-28T22:10:18.840Z,11.13
2019-03-28T22:12:47.111Z,11.50
2019-03-28T22:15:15.423Z,11.90
2019-03-28T22:17:43.714Z,10.80
2019-03-28T22:20:12.324Z,11.07
2019-03-28T22:22:43.396Z,11.37
2019-03-28T22:25:10.680Z,11.27
2019-03-28T22:27:38.945Z,11.77
2019-03-28T22:30:08.362Z,10.70
2019-03-28T22:32:36.690Z,10.87
2019-03-28T22:35:07.013Z,10.83
2019-03-28T22:37:35.349Z,10.40
2019-03-28T22:40:05.686Z,9.70
2019-03-28T22:42:34.017Z,10.23
2019-03-28T22:45:02.298Z,11.53
2019-03-28T22:47:33.794Z,10.57
2019-03-28T22:50:00.544Z,11.23
2019-03-28T22:52:28.832Z,10.00
2019-03-28T22:54:57.105Z,10.73
2019-03-28T22:57:25.375Z,11.03
2019-03-28T22:59:53.700Z,11.00
2019-03-28T23:02:21.966Z,11.10
2019-03-28T23:04:53.277Z,11.10
2019-03-28T23:07:23.325Z,11.57
2019-03-28T23:09:51.606Z,11.00
2019-03-28T23:12:19.884Z,11.70
2019-03-28T23:14:48.161Z,11.87
2019-03-28T23:17:16.450Z,12.23
2019-03-28T23:19:44.702Z,11.57
2019-03-28T23:22:12.995Z,11.23
2019-03-28T23:24:44.432Z,10.77
2019-03-28T23:27:12.686Z,9.60
2019-03-28T23:29:42.603Z,10.97
2019-03-28T23:32:11.162Z,12.33
2019-03-28T23:34:39.530Z,11.77
2019-03-28T23:37:07.875Z,25.00
2019-03-28T23:39:36.126Z,13.10
2019-03-28T23:42:04.436Z,10.87
2019-03-28T23:44:32.740Z,11.57
2019-03-28T23:47:01.007Z,11.70
2019-03-28T23:49:29.273Z,11.03
2019-03-28T23:51:57.585Z,11.33
2019-03-28T23:54:26.827Z,12.07
2019-03-28T23:56:55.244Z,12.00
2019-03-28T23:59:23.533Z,12.17
